createdAt,value
2018-07-25T00:00:23.668Z,19.46
2018-07-25T00:02:52.659Z,19.40
2018-07-25T00:05:22.077Z,19.44
2018-07-25T00:07:51.194Z,19.38
2018-07-25T00:10:20.303Z,19.34
2018-07-25T00:12:50.186Z,19.36
2018-07-25T00:15:18.990Z,19.35
2018-07-25T00:17:47.867Z,19.32
2018-07-25T00:20:17.138Z,19.29
2018-07-25T00:22:46.767Z,19.46
2018-07-25T00:25:16.093Z,19.37
2018-07-25T00:27:44.952Z,19.41
2018-07-25T00:30:13.731Z,19.44
2018-07-25T00:32:42.759Z,19.36
2018-07-25T00:35:11.528Z,19.30
2018-07-25T00:37:40.436Z,19.23
2018-07-25T00:40:09.582Z,19.29
2018-07-25T00:42:38.727Z,19.31
2018-07-25T00:45:08.334Z,19.26
2018-07-25T00:47:37.498Z,19.26
2018-07-25T00:50:06.606Z,19.22
2018-07-25T00:52:36.008Z,19.16
2018-07-25T00:55:05.319Z,19.10
2018-07-25T00:57:34.159Z,19.07
2018-07-25T01:00:03.254Z,19.15
2018-07-25T01:02:33.574Z,19.17
2018-07-25T01:05:02.206Z,19.27
2018-07-25T01:07:31.694Z,19.18
2018-07-25T01:10:01.032Z,19.29
2018-07-25T01:12:30.132Z,19.30
2018-07-25T01:14:59.328Z,19.28
2018-07-25T01:17:28.787Z,19.29
2018-07-25T01:19:57.792Z,19.35
2018-07-25T01:22:26.666Z,19.41
2018-07-25T01:24:55.847Z,19.49
2018-07-25T01:27:24.696Z,19.36
2018-07-25T01:29:54.020Z,19.37
2018-07-25T01:32:23.231Z,19.46
2018-07-25T01:34:53.567Z,19.43
2018-07-25T01:37:22.187Z,19.40
2018-07-25T01:39:51.415Z,19.33
2018-07-25T01:42:20.203Z,19.31
2018-07-25T01:44:49.820Z,19.30
2018-07-25T01:47:19.090Z,19.21
2018-07-25T01:49:47.935Z,19.21
2018-07-25T01:52:16.905Z,19.15
2018-07-25T01:54:47.408Z,19.16
2018-07-25T01:57:16.503Z,19.26
2018-07-25T01:59:45.462Z,19.10
2018-07-25T02:02:14.934Z,19.06
2018-07-25T02:04:43.936Z,18.97
2018-07-25T02:07:13.019Z,18.91
2018-07-25T02:09:43.270Z,18.89
2018-07-25T02:12:12.259Z,18.88
2018-07-25T02:14:41.018Z,18.78
2018-07-25T02:17:10.246Z,18.86
2018-07-25T02:19:39.437Z,18.87
2018-07-25T02:22:08.428Z,18.86
2018-07-25T02:24:37.214Z,18.84
2018-07-25T02:27:06.965Z,18.85
2018-07-25T02:29:36.442Z,18.83
2018-07-25T02:32:05.580Z,18.80
2018-07-25T02:34:34.604Z,18.79
2018-07-25T02:37:03.653Z,18.81
2018-07-25T02:39:32.619Z,18.83
2018-07-25T02:42:01.611Z,18.82
2018-07-25T02:44:31.103Z,18.83
2018-07-25T02:46:59.913Z,18.82
2018-07-25T02:49:29.094Z,18.86
2018-07-25T02:51:58.223Z,18.87
2018-07-25T02:54:27.199Z,18.88
2018-07-25T02:56:56.113Z,18.91
2018-07-25T02:59:25.323Z,18.94
2018-07-25T03:01:54.128Z,19.04
2018-07-25T03:04:22.990Z,18.98
2018-07-25T03:06:52.205Z,19.01
2018-07-25T03:09:21.263Z,19.07
2018-07-25T03:11:50.434Z,19.13
2018-07-25T03:14:19.757Z,19.15
2018-07-25T03:16:48.839Z,19.16
2018-07-25T03:19:17.503Z,19.17
2018-07-25T03:21:46.878Z,19.20
2018-07-25T03:24:15.743Z,19.16
2018-07-25T03:26:44.479Z,19.20
2018-07-25T03:29:13.310Z,19.26
2018-07-25T03:31:42.033Z,19.30
2018-07-25T03:34:11.076Z,19.23
2018-07-25T03:36:39.951Z,19.25
2018-07-25T03:39:09.135Z,19.28
2018-07-25T03:41:38.430Z,19.32
2018-07-25T03:44:07.360Z,19.28
2018-07-25T03:46:36.111Z,19.39
2018-07-25T03:49:06.029Z,19.31
2018-07-25T03:51:35.451Z,19.31
2018-07-25T03:54:04.348Z,19.43
2018-07-25T03:56:34.187Z,19.43
2018-07-25T03:59:03.059Z,19.40
2018-07-25T04:01:32.007Z,19.47
2018-07-25T04:04:01.265Z,19.52
2018-07-25T04:06:30.027Z,19.52
2018-07-25T04:08:58.926Z,19.52
2018-07-25T04:11:27.630Z,19.51
2018-07-25T04:13:56.490Z,19.54
2018-07-25T04:16:25.295Z,19.53
2018-07-25T04:18:54.140Z,19.64
2018-07-25T04:21:23.289Z,19.65
2018-07-25T04:23:52.774Z,19.74
2018-07-25T04:26:21.927Z,19.81
2018-07-25T04:28:51.051Z,19.86
2018-07-25T04:31:20.294Z,20.04
2018-07-25T04:33:51.007Z,20.08
2018-07-25T04:36:19.912Z,20.19
2018-07-25T04:38:48.699Z,20.13
2018-07-25T04:41:17.928Z,20.31
2018-07-25T04:43:47.031Z,20.47
2018-07-25T04:46:16.174Z,20.45
2018-07-25T04:48:45.388Z,20.64
2018-07-25T04:51:14.181Z,20.59
2018-07-25T04:53:43.288Z,20.55
2018-07-25T04:56:12.960Z,20.56
2018-07-25T04:58:41.785Z,20.59
2018-07-25T05:01:10.941Z,20.65
2018-07-25T05:03:40.991Z,20.75
2018-07-25T05:06:10.104Z,20.88
2018-07-25T05:08:39.066Z,20.84
2018-07-25T05:11:08.505Z,20.83
2018-07-25T05:13:37.464Z,20.70
2018-07-25T05:16:07.312Z,20.36
2018-07-25T05:18:36.728Z,20.28
2018-07-25T05:21:05.791Z,20.33
2018-07-25T05:23:34.713Z,20.59
2018-07-25T05:26:04.066Z,20.84
2018-07-25T05:28:32.940Z,20.96
2018-07-25T05:31:01.878Z,21.32
2018-07-25T05:33:31.397Z,22.32
2018-07-25T05:36:00.389Z,23.80
2018-07-25T05:38:29.076Z,25.81
2018-07-25T05:40:58.574Z,25.94
2018-07-25T05:43:27.765Z,26.37
2018-07-25T05:45:56.971Z,27.45
2018-07-25T05:48:26.271Z,27.93
2018-07-25T05:50:55.181Z,28.34
2018-07-25T05:53:24.052Z,27.46
2018-07-25T05:55:53.075Z,26.75
2018-07-25T05:58:22.227Z,26.12
2018-07-25T06:00:51.436Z,25.76
2018-07-25T06:03:20.436Z,25.07
2018-07-25T06:05:49.572Z,24.80
2018-07-25T06:08:19.091Z,24.45
2018-07-25T06:10:48.422Z,23.92
2018-07-25T06:13:17.516Z,23.63
2018-07-25T06:15:46.527Z,22.88
2018-07-25T06:18:15.843Z,22.63
2018-07-25T06:20:45.949Z,22.49
2018-07-25T06:23:15.241Z,22.39
2018-07-25T06:25:44.342Z,22.19
2018-07-25T06:28:13.553Z,22.15
2018-07-25T06:30:42.442Z,22.07
2018-07-25T06:33:11.438Z,22.02
2018-07-25T06:35:40.433Z,22.20
2018-07-25T06:38:09.639Z,22.07
2018-07-25T06:40:38.728Z,21.74
2018-07-25T06:43:07.724Z,21.75
2018-07-25T06:45:37.158Z,22.05
2018-07-25T06:48:06.947Z,21.98
2018-07-25T06:50:36.208Z,22.46
2018-07-25T06:53:05.326Z,23.08
2018-07-25T06:55:34.141Z,23.32
2018-07-25T06:58:03.822Z,23.21
2018-07-25T07:00:33.194Z,23.51
2018-07-25T07:03:02.255Z,23.67
2018-07-25T07:05:31.160Z,23.82
2018-07-25T07:08:00.611Z,23.78
2018-07-25T07:10:29.429Z,23.65
2018-07-25T07:12:58.617Z,23.73
2018-07-25T07:15:27.987Z,23.83
2018-07-25T07:17:57.246Z,23.83
2018-07-25T07:20:26.362Z,23.88
2018-07-25T07:22:55.815Z,23.38
2018-07-25T07:25:24.584Z,23.41
2018-07-25T07:27:53.576Z,23.02
2018-07-25T07:30:23.158Z,22.94
2018-07-25T07:32:52.573Z,22.93
2018-07-25T07:35:21.760Z,22.73
2018-07-25T07:37:50.993Z,22.90
2018-07-25T07:40:22.025Z,23.03
2018-07-25T07:42:51.630Z,23.43
2018-07-25T07:45:20.947Z,23.53
2018-07-25T07:47:50.124Z,24.13
2018-07-25T07:50:19.727Z,24.77
2018-07-25T07:52:48.721Z,25.09
2018-07-25T07:55:18.524Z,25.38
2018-07-25T07:57:47.480Z,25.06
2018-07-25T08:00:17.397Z,24.92
2018-07-25T08:02:47.559Z,25.23
2018-07-25T08:05:17.604Z,25.48
2018-07-25T08:07:46.770Z,25.48
2018-07-25T08:10:15.774Z,25.71
2018-07-25T08:12:44.898Z,25.82
2018-07-25T08:15:13.978Z,26.04
2018-07-25T08:17:42.974Z,25.85
2018-07-25T08:20:12.424Z,25.41
2018-07-25T08:22:41.908Z,25.45
2018-07-25T08:25:10.959Z,25.13
2018-07-25T08:27:40.074Z,25.46
2018-07-25T08:30:09.017Z,25.57
2018-07-25T08:32:38.090Z,25.37
2018-07-25T08:35:07.022Z,25.22
2018-07-25T08:37:36.456Z,25.35
2018-07-25T08:40:06.582Z,25.79
2018-07-25T08:42:35.874Z,26.02
2018-07-25T08:45:06.312Z,25.94
2018-07-25T08:47:35.180Z,26.12
2018-07-25T08:50:05.394Z,26.37
2018-07-25T08:52:34.417Z,26.46
2018-07-25T08:55:03.388Z,26.41
2018-07-25T08:57:32.944Z,26.27
2018-07-25T09:00:02.091Z,26.35
2018-07-25T09:02:31.500Z,26.03
2018-07-25T09:05:00.938Z,25.65
2018-07-25T09:07:29.856Z,25.24
2018-07-25T09:09:59.104Z,25.09
2018-07-25T09:12:28.275Z,24.67
2018-07-25T09:14:56.943Z,24.60
2018-07-25T09:17:25.786Z,24.17
2018-07-25T09:19:55.160Z,24.24
2018-07-25T09:22:25.102Z,24.00
2018-07-25T09:24:54.207Z,23.71
2018-07-25T09:27:23.939Z,23.48
2018-07-25T09:29:52.797Z,23.34
2018-07-25T09:32:22.207Z,23.33
2018-07-25T09:34:52.040Z,23.10
2018-07-25T09:37:21.481Z,23.02
2018-07-25T09:39:55.370Z,22.99
2018-07-25T09:42:26.260Z,22.88
2018-07-25T09:44:56.134Z,22.79
2018-07-25T09:47:25.296Z,22.57
2018-07-25T09:49:54.276Z,22.46
2018-07-25T09:52:23.886Z,22.49
2018-07-25T09:54:52.621Z,22.65
2018-07-25T09:57:21.678Z,22.83
2018-07-25T09:59:50.827Z,22.77
2018-07-25T10:02:19.688Z,23.10
2018-07-25T10:04:48.644Z,23.41
2018-07-25T10:07:18.142Z,23.45
2018-07-25T10:09:46.843Z,23.96
2018-07-25T10:12:15.769Z,24.61
2018-07-25T10:14:45.167Z,25.03
2018-07-25T10:17:14.658Z,25.16
2018-07-25T10:19:43.358Z,25.35
2018-07-25T10:22:12.699Z,25.28
2018-07-25T10:24:41.807Z,25.62
2018-07-25T10:27:10.835Z,25.50
2018-07-25T10:29:39.991Z,25.53
2018-07-25T10:32:09.156Z,25.41
2018-07-25T10:34:38.419Z,24.66
2018-07-25T10:37:07.431Z,24.33
2018-07-25T10:39:36.306Z,24.04
2018-07-25T10:42:05.934Z,24.14
2018-07-25T10:44:35.136Z,24.22
2018-07-25T10:47:04.210Z,24.48
2018-07-25T10:49:33.847Z,24.46
2018-07-25T10:52:02.906Z,23.93
2018-07-25T10:54:32.360Z,23.58
2018-07-25T10:57:01.337Z,23.76
2018-07-25T10:59:30.612Z,23.92
2018-07-25T11:01:59.740Z,23.97
2018-07-25T11:04:28.924Z,23.69
2018-07-25T11:06:58.142Z,23.52
2018-07-25T11:09:27.181Z,23.78
2018-07-25T11:11:56.333Z,24.21
2018-07-25T11:14:25.719Z,24.52
2018-07-25T11:16:55.945Z,24.83
2018-07-25T11:19:25.357Z,24.93
2018-07-25T11:21:54.272Z,25.15
2018-07-25T11:24:23.212Z,25.27
2018-07-25T11:26:52.124Z,25.45
2018-07-25T11:29:21.326Z,25.95
2018-07-25T11:31:51.007Z,26.43
2018-07-25T11:34:19.947Z,26.67
2018-07-25T11:36:48.895Z,25.93
2018-07-25T11:39:18.105Z,26.45
2018-07-25T11:41:47.023Z,26.96
2018-07-25T11:44:16.436Z,26.88
2018-07-25T11:46:46.126Z,26.98
2018-07-25T11:49:15.207Z,27.05
2018-07-25T11:51:44.477Z,27.14
2018-07-25T11:54:13.425Z,27.46
2018-07-25T11:56:42.330Z,27.10
2018-07-25T11:59:11.543Z,26.98
2018-07-25T12:01:40.708Z,26.94
2018-07-25T12:04:09.715Z,27.09
2018-07-25T12:06:39.343Z,27.08
2018-07-25T12:09:09.938Z,27.20
2018-07-25T12:11:46.550Z,27.04
2018-07-25T12:14:17.046Z,27.27
2018-07-25T12:16:47.614Z,27.29
2018-07-25T12:19:17.308Z,27.76
2018-07-25T12:21:46.979Z,27.99
2018-07-25T12:24:16.172Z,28.20
2018-07-25T12:26:45.237Z,27.83
2018-07-25T12:29:14.302Z,27.90
2018-07-25T12:31:43.615Z,28.23
2018-07-25T12:34:12.338Z,28.01
2018-07-25T12:36:41.402Z,28.23
2018-07-25T12:39:11.270Z,27.84
2018-07-25T12:41:40.464Z,28.06
2018-07-25T12:44:10.301Z,28.05
2018-07-25T12:46:39.312Z,27.73
2018-07-25T12:49:08.774Z,27.76
2018-07-25T12:51:37.683Z,27.53
2018-07-25T12:54:06.990Z,27.54
2018-07-25T12:56:36.006Z,27.72
2018-07-25T12:59:05.107Z,27.91
2018-07-25T13:01:34.391Z,27.76
2018-07-25T13:04:03.593Z,27.69
2018-07-25T13:06:32.596Z,27.50
2018-07-25T13:09:01.981Z,27.33
2018-07-25T13:11:31.489Z,27.10
2018-07-25T13:14:01.124Z,27.30
2018-07-25T13:16:30.305Z,27.29
2018-07-25T13:18:59.218Z,27.45
2018-07-25T13:21:28.186Z,27.50
2018-07-25T13:23:57.480Z,27.37
2018-07-25T13:26:26.348Z,27.25
2018-07-25T13:28:55.936Z,26.90
2018-07-25T13:31:25.474Z,26.68
2018-07-25T13:33:54.406Z,26.31
2018-07-25T13:36:23.571Z,26.07
2018-07-25T13:38:52.902Z,26.17
2018-07-25T13:41:22.094Z,26.33
2018-07-25T13:43:51.197Z,26.44
2018-07-25T13:46:21.218Z,26.55
2018-07-25T13:48:50.024Z,26.30
2018-07-25T13:51:19.004Z,26.51
2018-07-25T13:53:48.662Z,26.41
2018-07-25T13:56:17.930Z,26.38
2018-07-25T13:58:47.008Z,26.38
2018-07-25T14:01:16.446Z,26.22
2018-07-25T14:03:45.456Z,26.30
2018-07-25T14:06:14.709Z,26.33
2018-07-25T14:08:43.859Z,26.24
2018-07-25T14:11:13.522Z,26.22
2018-07-25T14:13:42.634Z,26.33
2018-07-25T14:16:12.068Z,26.53
2018-07-25T14:18:41.307Z,26.50
2018-07-25T14:21:10.967Z,26.55
2018-07-25T14:23:40.164Z,26.18
2018-07-25T14:26:09.402Z,26.19
2018-07-25T14:28:38.339Z,25.86
2018-07-25T14:31:07.659Z,25.85
2018-07-25T14:33:36.730Z,25.80
2018-07-25T14:36:05.907Z,25.49
2018-07-25T14:38:35.425Z,25.37
2018-07-25T14:41:04.526Z,25.51
2018-07-25T14:43:33.631Z,25.63
2018-07-25T14:46:02.569Z,25.69
2018-07-25T14:48:31.409Z,25.76
2018-07-25T14:51:00.842Z,25.76
2018-07-25T14:53:30.414Z,25.93
2018-07-25T14:55:59.453Z,26.05
2018-07-25T14:58:28.529Z,26.05
2018-07-25T15:00:58.052Z,26.06
2018-07-25T15:03:27.437Z,26.13
2018-07-25T15:05:56.419Z,26.04
2018-07-25T15:08:25.936Z,26.15
2018-07-25T15:10:55.017Z,26.39
2018-07-25T15:13:24.185Z,26.51
2018-07-25T15:15:53.642Z,26.51
2018-07-25T15:18:22.551Z,26.54
2018-07-25T15:20:51.592Z,26.23
2018-07-25T15:23:31.993Z,26.11
2018-07-25T15:26:01.296Z,26.01
2018-07-25T15:28:31.328Z,25.91
2018-07-25T15:31:00.810Z,25.85
2018-07-25T15:33:30.515Z,25.67
2018-07-25T15:35:59.470Z,25.56
2018-07-25T15:38:28.627Z,25.37
2018-07-25T15:40:57.801Z,25.30
2018-07-25T15:43:26.683Z,25.38
2018-07-25T15:45:56.256Z,25.46
2018-07-25T15:48:25.310Z,25.53
2018-07-25T15:50:54.461Z,25.57
2018-07-25T15:53:23.835Z,25.55
2018-07-25T15:55:53.312Z,25.55
2018-07-25T15:58:22.309Z,25.64
2018-07-25T16:00:52.135Z,25.83
2018-07-25T16:03:21.413Z,25.92
2018-07-25T16:05:50.214Z,25.82
2018-07-25T16:08:19.420Z,25.66
2018-07-25T16:10:48.513Z,25.65
2018-07-25T16:13:17.922Z,25.72
2018-07-25T16:15:47.361Z,25.68
2018-07-25T16:18:16.407Z,25.68
2018-07-25T16:20:45.493Z,25.48
2018-07-25T16:23:14.811Z,25.30
2018-07-25T16:25:43.686Z,24.87
2018-07-25T16:28:12.969Z,24.58
2018-07-25T16:30:42.288Z,24.08
2018-07-25T16:33:11.221Z,23.95
2018-07-25T16:35:40.369Z,24.18
2018-07-25T16:38:10.433Z,24.01
2018-07-25T16:40:39.298Z,23.55
2018-07-25T16:43:08.341Z,23.55
2018-07-25T16:45:37.734Z,23.58
2018-07-25T16:48:06.902Z,23.55
2018-07-25T16:50:36.007Z,23.49
2018-07-25T16:53:05.559Z,23.05
2018-07-25T16:55:34.295Z,22.87
2018-07-25T16:58:03.359Z,22.79
2018-07-25T17:00:33.112Z,22.67
2018-07-25T17:03:03.551Z,22.57
2018-07-25T17:05:33.623Z,22.57
2018-07-25T17:08:02.953Z,22.47
2018-07-25T17:10:32.562Z,22.40
2018-07-25T17:13:02.679Z,22.40
2018-07-25T17:15:35.316Z,22.35
2018-07-25T17:18:04.865Z,22.23
2018-07-25T17:20:33.791Z,22.15
2018-07-25T17:23:03.667Z,22.04
2018-07-25T17:25:32.915Z,21.90
2018-07-25T17:28:04.148Z,21.85
2018-07-25T17:33:33.231Z,21.68
2018-07-25T17:36:03.464Z,21.44
2018-07-25T17:38:34.675Z,21.43
2018-07-25T17:41:04.809Z,21.43
2018-07-25T17:43:36.677Z,21.36
2018-07-25T17:46:05.611Z,21.22
2018-07-25T17:48:34.627Z,21.21
2018-07-25T17:51:03.923Z,21.17
2018-07-25T17:53:33.302Z,21.16
2018-07-25T17:56:02.114Z,20.98
2018-07-25T17:58:30.957Z,21.21
2018-07-25T18:00:59.882Z,21.11
2018-07-25T18:03:28.739Z,21.02
2018-07-25T18:05:57.708Z,21.02
2018-07-25T18:08:26.668Z,20.99
2018-07-25T18:10:55.712Z,20.96
2018-07-25T18:13:30.582Z,20.96
2018-07-25T18:15:59.392Z,20.95
2018-07-25T18:20:57.103Z,20.83
2018-07-25T18:23:25.962Z,20.82
2018-07-25T18:25:55.363Z,20.85
2018-07-25T18:28:24.659Z,20.78
2018-07-25T18:30:54.391Z,20.74
2018-07-25T18:33:23.372Z,20.78
2018-07-25T18:35:52.515Z,20.78
2018-07-25T18:38:21.447Z,20.76
2018-07-25T18:40:51.691Z,20.81
2018-07-25T18:43:20.916Z,20.75
2018-07-25T18:45:49.602Z,20.82
2018-07-25T18:48:19.666Z,20.82
2018-07-25T18:50:52.271Z,20.85
2018-07-25T18:56:01.671Z,20.69
2018-07-25T18:58:31.050Z,20.62
2018-07-25T19:00:59.923Z,20.70
2018-07-25T19:03:29.703Z,20.62
2018-07-25T19:05:59.155Z,20.67
2018-07-25T19:08:28.116Z,20.64
2018-07-25T19:10:57.028Z,20.58
2018-07-25T19:13:31.571Z,20.63
2018-07-25T19:16:00.546Z,20.61
2018-07-25T19:18:29.828Z,20.67
2018-07-25T19:20:59.367Z,20.64
2018-07-25T19:23:28.352Z,20.57
2018-07-25T19:25:57.632Z,20.55
2018-07-25T19:28:26.549Z,20.51
2018-07-25T19:30:55.437Z,20.43
2018-07-25T19:33:24.322Z,20.38
2018-07-25T19:35:54.164Z,20.34
2018-07-25T19:38:22.926Z,20.28
2018-07-25T19:40:52.726Z,20.25
2018-07-25T19:43:21.954Z,20.20
2018-07-25T19:45:51.151Z,20.08
2018-07-25T19:48:21.423Z,20.08
2018-07-25T19:50:50.261Z,20.00
2018-07-25T19:53:19.357Z,19.96
2018-07-25T19:55:48.485Z,19.94
2018-07-25T19:58:17.324Z,19.87
2018-07-25T20:00:46.160Z,19.86
2018-07-25T20:03:16.378Z,19.82
2018-07-25T20:05:45.206Z,19.83
2018-07-25T20:08:14.031Z,19.72
2018-07-25T20:10:43.203Z,19.71
2018-07-25T20:13:12.199Z,19.63
2018-07-25T20:15:47.111Z,19.56
2018-07-25T20:18:15.862Z,19.53
2018-07-25T20:20:44.839Z,19.48
2018-07-25T20:23:14.023Z,19.52
2018-07-25T20:25:43.042Z,19.39
2018-07-25T20:28:12.690Z,19.39
2018-07-25T20:30:41.852Z,19.28
2018-07-25T20:33:10.845Z,19.31
2018-07-25T20:35:39.836Z,19.30
2018-07-25T20:38:08.847Z,19.27
2018-07-25T20:40:37.828Z,19.16
2018-07-25T20:43:08.874Z,19.10
2018-07-25T20:45:38.684Z,19.09
2018-07-25T20:48:08.606Z,19.02
2018-07-25T20:50:38.536Z,19.04
2018-07-25T20:53:09.750Z,19.01
2018-07-25T20:55:39.274Z,19.00
2018-07-25T20:58:11.874Z,18.94
2018-07-25T21:00:42.236Z,18.97
2018-07-25T21:03:13.243Z,18.96
2018-07-25T21:05:44.436Z,18.93
2018-07-25T21:08:13.355Z,18.93
2018-07-25T21:10:42.481Z,18.92
2018-07-25T21:13:11.266Z,18.88
2018-07-25T21:15:40.035Z,18.89
2018-07-25T21:18:09.387Z,18.82
2018-07-25T21:20:38.448Z,18.82
2018-07-25T21:23:07.245Z,18.79
2018-07-25T21:25:36.324Z,18.81
2018-07-25T21:28:05.198Z,18.85
2018-07-25T21:30:34.638Z,18.79
2018-07-25T21:33:03.799Z,18.79
2018-07-25T21:35:32.533Z,18.76
2018-07-25T21:38:01.632Z,18.75
2018-07-25T21:40:30.573Z,18.69
2018-07-25T21:42:59.492Z,18.68
2018-07-25T21:45:28.474Z,18.67
2018-07-25T21:47:58.075Z,18.64
2018-07-25T21:50:27.283Z,18.59
2018-07-25T21:52:56.451Z,18.60
2018-07-25T21:55:26.126Z,18.58
2018-07-25T21:57:55.218Z,18.55
2018-07-25T22:00:24.179Z,18.53
2018-07-25T22:02:53.354Z,18.48
2018-07-25T22:05:23.286Z,18.51
2018-07-25T22:07:52.335Z,18.52
2018-07-25T22:10:21.502Z,18.53
2018-07-25T22:12:51.104Z,18.47
2018-07-25T22:15:20.126Z,18.48
2018-07-25T22:17:50.363Z,18.50
2018-07-25T22:20:19.439Z,18.50
2018-07-25T22:22:48.311Z,18.46
2018-07-25T22:25:17.650Z,18.39
2018-07-25T22:27:46.778Z,18.37
2018-07-25T22:30:15.918Z,18.35
2018-07-25T22:32:44.868Z,18.31
2018-07-25T22:35:13.825Z,18.30
2018-07-25T22:37:42.727Z,18.28
2018-07-25T22:40:11.638Z,18.31
2018-07-25T22:42:40.497Z,18.28
2018-07-25T22:45:09.762Z,18.28
2018-07-25T22:47:38.843Z,18.30
2018-07-25T22:50:07.588Z,18.27
2018-07-25T22:52:36.275Z,17.99
2018-07-25T22:55:05.903Z,18.27
2018-07-25T22:57:34.855Z,18.34
2018-07-25T23:00:05.139Z,18.32
2018-07-25T23:02:35.028Z,18.24
2018-07-25T23:05:04.203Z,18.25
2018-07-25T23:07:33.315Z,18.27
2018-07-25T23:10:02.826Z,18.31
2018-07-25T23:12:31.701Z,18.26
2018-07-25T23:15:00.720Z,18.27
2018-07-25T23:17:30.035Z,18.29
2018-07-25T23:19:58.994Z,18.27
2018-07-25T23:22:27.732Z,18.20
2018-07-25T23:24:56.912Z,18.20
2018-07-25T23:27:26.049Z,18.11
2018-07-25T23:29:54.871Z,18.13
2018-07-25T23:32:24.312Z,18.14
2018-07-25T23:34:53.711Z,18.20
2018-07-25T23:37:22.638Z,18.22
2018-07-25T23:39:51.738Z,18.20
2018-07-25T23:42:20.747Z,18.16
2018-07-25T23:44:49.854Z,18.14
2018-07-25T23:47:18.639Z,18.15
2018-07-25T23:49:47.543Z,18.17
2018-07-25T23:52:16.410Z,18.15
2018-07-25T23:54:45.501Z,18.17
2018-07-25T23:57:15.666Z,18.23
2018-07-25T23:59:44.848Z,18.22
